Time;durP1;ratioP1;P1;durP2;ratioP2;P2;SDS_P1;SDS_P2;PMS_P1;PMS_P2;Temp;Humidity;BMP_temperature;BMP_pressure;BME280_temperature;BME280_humidity;BME280_pressure;Samples;Min_cycle;Max_cycle;Signal;HPM_P1;HPM_P2
2020/12/16 00:00:51;;;;;;;12.40;9.00;;;7.70;99.90;;;5.64;100.00;100454.53;5006364;27;100232;-63
2020/12/16 00:03:18;;;;;;;13.00;9.47;;;7.80;99.90;;;5.64;100.00;100465.16;5006435;27;100719;-63
2020/12/16 00:05:44;;;;;;;13.03;8.97;;;7.70;99.90;;;5.64;100.00;100458.03;5019307;27;100497;-63
2020/12/16 00:08:12;;;;;;;12.90;9.13;;;7.70;99.90;;;5.65;100.00;100464.19;5018509;27;100750;-63
2020/12/16 00:10:39;;;;;;;12.60;9.87;;;7.70;99.90;;;5.69;100.00;100469.09;5008439;27;100212;-62
2020/12/16 00:13:10;;;;;;;12.80;9.17;;;7.70;99.90;;;5.72;100.00;100475.97;5009200;27;101870;-62
2020/12/16 00:15:37;;;;;;;12.80;8.97;;;7.80;99.90;;;5.80;100.00;100476.25;5009270;27;100721;-63
2020/12/16 00:18:04;;;;;;;15.90;10.50;;;7.80;99.90;;;5.81;100.00;100479.75;5009713;27;100257;-62
2020/12/16 00:20:30;;;;;;;12.97;9.20;;;7.70;99.90;;;5.84;100.00;100482.97;5009460;27;100155;-63
2020/12/16 00:22:56;;;;;;;12.53;9.33;;;7.90;99.90;;;5.86;100.00;100489.00;5008631;27;101359;-62
2020/12/16 00:25:23;;;;;;;14.13;10.40;;;7.90;99.90;;;5.89;100.00;100493.25;5022109;27;100739;-63
2020/12/16 00:27:49;;;;;;;14.10;9.73;;;7.80;99.90;;;5.87;100.00;100482.72;5029613;27;100133;-63
2020/12/16 00:30:17;;;;;;;14.27;10.30;;;7.80;99.90;;;5.92;100.00;100490.38;5029048;27;100339;-62
2020/12/16 00:32:43;;;;;;;14.57;10.00;;;8.70;99.90;;;6.00;100.00;100499.41;5028658;27;100985;-63
2020/12/16 00:35:10;;;;;;;12.23;9.47;;;7.90;99.90;;;5.96;100.00;100494.44;5028296;27;100805;-63
2020/12/16 00:37:37;;;;;;;14.07;9.70;;;7.90;99.90;;;5.99;100.00;100494.22;5008991;27;100403;-62
2020/12/16 00:40:06;;;;;;;13.70;10.43;;;7.80;99.90;;;5.96;100.00;100492.63;5009466;27;100021;-62
2020/12/16 00:42:32;;;;;;;11.97;9.90;;;8.00;99.90;;;5.96;100.00;100500.59;5009016;27;100646;-62
2020/12/16 00:44:59;;;;;;;15.17;10.43;;;8.80;99.90;;;5.95;100.00;100495.41;5008444;27;100402;-62
2020/12/16 00:47:26;;;;;;;12.53;9.67;;;8.00;99.90;;;5.93;100.00;100508.00;5009306;27;100180;-62
2020/12/16 00:49:53;;;;;;;12.63;9.83;;;8.10;99.90;;;5.92;100.00;100507.16;5010016;27;100162;-62
2020/12/16 00:52:19;;;;;;;11.93;9.23;;;8.00;99.90;;;5.94;100.00;100515.81;5008884;27;100777;-62
2020/12/16 00:54:45;;;;;;;12.63;10.27;;;8.00;99.90;;;5.93;100.00;100515.97;5009084;27;100604;-62
2020/12/16 00:57:12;;;;;;;13.17;9.13;;;8.40;99.90;;;5.93;100.00;100524.78;5006281;27;100323;-62
2020/12/16 00:59:39;;;;;;;13.90;10.30;;;7.50;99.90;;;5.91;100.00;100521.41;5008470;27;100115;-62
2020/12/16 01:02:06;;;;;;;14.90;10.70;;;8.00;99.90;;;5.93;100.00;100523.94;5006797;27;102714;-63
2020/12/16 01:04:34;;;;;;;13.60;9.87;;;8.00;99.90;;;5.93;100.00;100527.44;5021559;27;100989;-63
2020/12/16 01:07:01;;;;;;;15.23;10.50;;;8.00;99.90;;;5.93;100.00;100538.06;5026488;27;100566;-63
2020/12/16 01:09:28;;;;;;;13.70;10.97;;;8.10;99.90;;;5.93;100.00;100535.41;5028997;27;100122;-62
2020/12/16 01:11:54;;;;;;;12.20;9.63;;;7.90;99.90;;;5.93;100.00;100534.56;5026495;27;102324;-62
2020/12/16 01:14:21;;;;;;;15.13;10.83;;;8.10;99.90;;;5.90;100.00;100538.28;5027147;27;102224;-63
2020/12/16 01:16:48;;;;;;;15.40;10.23;;;8.00;99.90;;;5.91;100.00;100532.03;5043819;27;100098;-62
2020/12/16 01:19:19;;;;;;;12.33;9.60;;;8.10;99.90;;;5.89;100.00;100536.59;5026538;27;100506;-63
2020/12/16 01:21:48;;;;;;;13.07;10.10;;;9.80;99.90;;;5.91;100.00;100542.63;5004837;27;103206;-63
2020/12/16 01:24:16;;;;;;;16.17;10.13;;;8.10;99.90;;;5.89;100.00;100549.03;5006305;27;102450;-62
2020/12/16 01:26:46;;;;;;;14.00;10.17;;;8.00;99.90;;;5.89;100.00;100547.22;5006483;27;100328;-63
2020/12/16 01:29:15;;;;;;;12.63;10.77;;;8.10;99.90;;;5.86;100.00;100549.25;5007014;27;100133;-64
2020/12/16 01:31:45;;;;;;;13.57;10.30;;;8.00;99.90;;;5.83;100.00;100552.97;5008438;27;100116;-63
2020/12/16 01:34:19;;;;;;;15.10;10.60;;;7.90;99.90;;;5.83;100.00;100555.63;5005951;27;100694;-63
2020/12/16 01:36:51;;;;;;;12.57;10.27;;;8.00;99.90;;;5.83;100.00;100554.78;5006224;27;99960;-62
2020/12/16 01:39:18;;;;;;;14.70;11.40;;;8.10;99.90;;;5.83;100.00;100555.63;5007113;27;100185;-61
2020/12/16 01:41:49;;;;;;;14.87;11.23;;;8.00;99.90;;;5.84;100.00;100556.47;5005856;27;102716;-61
2020/12/16 01:44:22;;;;;;;14.77;11.20;;;8.00;99.90;;;5.80;100.00;100566.53;5005863;27;102196;-63
2020/12/16 01:46:56;;;;;;;14.07;10.77;;;8.00;99.90;;;5.82;100.00;100567.22;5005520;27;100216;-65
2020/12/16 01:49:28;;;;;;;14.37;10.97;;;9.10;99.90;;;5.81;100.00;100572.69;5005807;27;100419;-63
2020/12/16 01:51:57;;;;;;;15.73;10.80;;;7.90;99.90;;;5.82;100.00;100569.03;5006032;27;103290;-64
2020/12/16 01:54:25;;;;;;;15.53;11.10;;;8.10;99.90;;;5.82;100.00;100569.03;5005482;27;102730;-63
2020/12/16 01:56:57;;;;;;;14.77;11.07;;;8.00;99.90;;;5.80;100.00;100571.81;5008218;27;100154;-63
2020/12/16 02:00:00;;;;;;;14.37;10.90;;;8.10;99.90;;;5.78;100.00;100574.59;5013502;27;100336;-63
2020/12/16 02:02:47;;;;;;;14.27;10.90;;;8.10;99.90;;;5.81;100.00;100584.09;5025280;27;100404;-63
2020/12/16 02:05:20;;;;;;;15.20;11.40;;;7.90;99.90;;;5.80;100.00;100586.91;5025941;27;103059;-64
2020/12/16 02:07:53;;;;;;;15.17;11.37;;;8.00;99.90;;;5.81;100.00;100583.28;5028171;27;99904;-63
2020/12/16 02:10:20;;;;;;;15.77;11.53;;;8.00;99.90;;;5.78;100.00;100589.69;5028226;27;100117;-62
2020/12/16 02:12:47;;;;;;;14.37;11.47;;;8.10;99.90;;;5.78;100.00;100584.38;5026149;27;103268;-63
2020/12/16 02:15:14;;;;;;;13.77;10.50;;;8.10;99.90;;;5.75;100.00;100585.47;5043169;27;100401;-63
2020/12/16 02:17:42;;;;;;;16.47;12.50;;;7.20;99.90;;;5.71;100.00;100589.31;5031287;27;100140;-63
2020/12/16 02:20:09;;;;;;;15.60;11.23;;;8.00;99.90;;;5.70;100.00;100595.56;5035552;27;100511;-64
2020/12/16 02:22:49;;;;;;;16.27;11.70;;;8.00;99.90;;;5.70;100.00;100587.59;5026073;27;102907;-63
2020/12/16 02:25:18;;;;;;;14.50;11.70;;;8.30;99.90;;;5.72;100.00;100583.03;5043301;27;102586;-63
2020/12/16 02:27:54;;;;;;;16.73;13.13;;;8.00;99.90;;;5.73;100.00;100584.72;5006705;27;100301;-63
2020/12/16 02:30:27;;;;;;;14.03;11.37;;;9.00;99.90;;;5.72;100.00;100588.34;5005796;27;100115;-64
2020/12/16 02:33:12;;;;;;;15.63;12.77;;;9.00;99.90;;;5.71;100.00;100584.00;5016627;27;100298;-63
2020/12/16 02:35:49;;;;;;;15.80;12.03;;;7.90;99.90;;;5.73;100.00;100597.16;5025249;27;102128;-63
2020/12/16 02:38:20;;;;;;;14.43;11.53;;;8.10;99.90;;;5.72;100.00;100595.47;5024982;27;100168;-63
2020/12/16 02:40:47;;;;;;;16.00;12.33;;;9.30;99.90;;;5.67;100.00;100587.03;5027898;27;100297;-62
2020/12/16 02:43:15;;;;;;;17.07;12.43;;;8.10;99.90;;;5.69;100.00;100585.91;5025141;27;103055;-63
2020/12/16 02:45:43;;;;;;;15.27;12.53;;;8.00;99.90;;;5.69;100.00;100587.72;5025291;27;103084;-63
2020/12/16 02:48:19;;;;;;;18.03;12.37;;;9.20;99.90;;;5.70;100.00;100590.25;5025640;27;100023;-63
2020/12/16 02:50:46;;;;;;;16.90;12.50;;;8.60;99.90;;;5.70;100.00;100600.03;5015386;27;100237;-63
2020/12/16 02:53:14;;;;;;;16.83;11.97;;;7.90;99.90;;;5.71;100.00;100594.63;5004853;27;102232;-63
2020/12/16 02:56:07;;;;;;;14.87;11.93;;;7.90;99.90;;;5.74;100.00;100610.31;5006892;27;99984;-62
2020/12/16 02:58:45;;;;;;;15.47;11.73;;;8.00;99.90;;;5.72;100.00;100612.25;5022178;27;100136;-64
2020/12/16 03:01:11;;;;;;;15.43;12.07;;;8.00;99.90;;;5.74;100.00;100620.09;5004853;27;100327;-63
2020/12/16 03:03:56;;;;;;;15.77;12.77;;;7.40;99.90;;;5.76;100.00;100626.97;5004036;27;103148;-64
2020/12/16 03:06:49;;;;;;;15.17;12.03;;;7.90;99.90;;;5.80;100.00;100614.31;5021001;27;102699;-63
2020/12/16 03:09:21;;;;;;;18.53;12.13;;;8.10;99.90;;;5.80;100.00;100613.47;5005131;27;100099;-63
2020/12/16 03:11:52;;;;;;;17.00;12.30;;;8.00;99.90;;;5.76;100.00;100611.03;5004320;27;100451;-63
2020/12/16 03:14:22;;;;;;;15.67;11.60;;;8.00;99.90;;;5.77;100.00;100612.75;5004773;27;102935;-63
2020/12/16 03:16:50;;;;;;;14.97;11.47;;;8.00;99.90;;;5.75;100.00;100619.13;5005206;27;103312;-63
2020/12/16 03:19:24;;;;;;;17.17;11.53;;;8.00;99.90;;;5.77;100.00;100623.34;5007059;27;100222;-63
2020/12/16 03:21:53;;;;;;;16.63;12.23;;;8.20;99.90;;;5.73;100.00;100623.69;5042510;27;100285;-63
2020/12/16 03:24:29;;;;;;;14.67;11.87;;;8.10;99.90;;;5.68;100.00;100632.03;5004184;27;100321;-63
2020/12/16 03:27:03;;;;;;;16.23;11.47;;;8.80;99.90;;;5.67;100.00;100632.16;5006251;27;100220;-63
2020/12/16 03:29:41;;;;;;;16.77;12.73;;;7.90;99.90;;;5.68;100.00;100629.38;5021141;27;100290;-63
2020/12/16 03:32:23;;;;;;;15.40;12.40;;;8.00;99.90;;;5.73;100.00;100637.81;5021597;27;100409;-63
2020/12/16 03:35:07;;;;;;;15.70;11.40;;;8.00;99.90;;;5.73;100.00;100634.31;5020699;27;102434;-64
2020/12/16 03:37:34;;;;;;;16.03;12.40;;;8.10;99.90;;;5.71;100.00;100641.56;5021521;27;100131;-62
2020/12/16 03:40:01;;;;;;;17.80;12.37;;;8.10;99.90;;;5.72;100.00;100645.91;5021458;27;101002;-63
2020/12/16 03:42:35;;;;;;;15.90;12.23;;;8.20;99.90;;;5.69;100.00;100635.50;5004671;27;100064;-63
2020/12/16 03:45:03;;;;;;;15.73;12.07;;;8.10;99.90;;;5.72;100.00;100643.25;5007829;27;100744;-63
2020/12/16 03:47:32;;;;;;;16.70;12.57;;;8.10;99.90;;;5.70;100.00;100643.38;5024723;27;100933;-64
2020/12/16 03:50:02;;;;;;;16.20;12.43;;;8.20;99.90;;;5.68;100.00;100647.97;5010263;27;100063;-63
2020/12/16 03:52:28;;;;;;;14.50;10.37;;;8.10;99.90;;;5.71;100.00;100645.06;5028195;27;100357;-63
2020/12/16 03:55:25;;;;;;;15.60;12.77;;;8.20;99.90;;;5.70;100.00;100651.34;5027199;27;103314;-63
2020/12/16 03:58:08;;;;;;;16.33;13.13;;;8.90;99.90;;;5.67;100.00;100648.09;5027998;27;102644;-63
2020/12/16 04:01:12;;;;;;;15.97;11.40;;;8.20;99.90;;;5.63;100.00;100646.63;5014355;27;100082;-63
2020/12/16 04:03:41;;;;;;;15.77;12.17;;;8.20;99.90;;;5.63;100.00;100649.28;5027727;27;100116;-63
2020/12/16 04:06:25;;;;;;;16.20;11.80;;;9.00;99.90;;;5.63;100.00;100649.28;5027820;27;103204;-63
2020/12/16 04:08:54;;;;;;;14.83;12.17;;;8.00;99.90;;;5.73;100.00;100651.09;5045093;27;100668;-63
2020/12/16 04:11:27;;;;;;;15.60;12.30;;;8.10;99.90;;;5.63;100.00;100655.44;5035291;27;100019;-63
2020/12/16 04:14:01;;;;;;;15.00;11.93;;;8.40;99.90;;;5.69;100.00;100662.91;5008414;27;100419;-63
2020/12/16 04:16:32;;;;;;;16.57;12.63;;;8.20;99.90;;;5.72;100.00;100662.69;5021374;27;102957;-64
2020/12/16 04:19:07;;;;;;;13.87;12.27;;;8.20;99.90;;;5.63;100.00;100663.41;5018081;27;102660;-62
2020/12/16 04:21:35;;;;;;;17.97;12.87;;;8.20;99.90;;;5.64;100.00;100667.75;5044310;27;100032;-64
2020/12/16 04:24:01;;;;;;;16.93;13.43;;;8.10;99.90;;;5.63;100.00;100667.84;5028063;27;100222;-63
2020/12/16 04:26:49;;;;;;;15.63;13.40;;;8.20;99.90;;;5.62;100.00;100666.16;5030002;27;100996;-64
2020/12/16 04:29:19;;;;;;;14.70;11.70;;;8.20;99.90;;;5.64;100.00;100665.09;5007282;27;102540;-63
2020/12/16 04:31:50;;;;;;;18.37;13.60;;;9.30;99.90;;;5.58;100.00;100672.66;5009089;27;100334;-63
2020/12/16 04:34:18;;;;;;;15.47;12.73;;;8.00;99.90;;;5.55;100.00;100672.91;5007439;27;100152;-64
2020/12/16 04:36:46;;;;;;;16.90;13.53;;;8.10;99.90;;;5.56;100.00;100677.28;5007272;27;102409;-63
2020/12/16 04:39:13;;;;;;;17.10;13.43;;;8.20;99.90;;;5.52;100.00;100671.34;5007306;27;102343;-63
2020/12/16 04:41:40;;;;;;;16.30;13.00;;;8.10;99.90;;;5.54;100.00;100680.03;5007439;27;100223;-63
2020/12/16 04:44:14;;;;;;;18.47;14.30;;;8.00;99.90;;;5.51;100.00;100677.59;5007581;27;100206;-63
2020/12/16 04:46:46;;;;;;;19.00;13.27;;;8.20;99.90;;;5.55;100.00;100670.25;5006738;27;102545;-63
2020/12/16 04:49:21;;;;;;;15.90;13.53;;;8.10;99.90;;;5.53;100.00;100681.00;5023804;27;102701;-65
2020/12/16 04:51:53;;;;;;;17.50;12.87;;;8.10;99.90;;;5.52;100.00;100681.09;5007701;27;100182;-63
2020/12/16 04:54:31;;;;;;;18.40;13.43;;;8.00;99.90;;;5.60;100.00;100684.88;5024744;27;100412;-64
2020/12/16 04:57:03;;;;;;;16.27;13.27;;;8.10;99.90;;;5.56;100.00;100683.44;5023755;27;100714;-63
2020/12/16 04:59:37;;;;;;;18.47;13.27;;;8.00;99.90;;;5.55;100.00;100689.69;5023651;27;102450;-63
2020/12/16 05:02:16;;;;;;;18.37;13.73;;;8.00;99.90;;;5.57;100.00;100682.44;5023956;27;100237;-63
2020/12/16 05:05:23;;;;;;;21.40;15.83;;;8.10;99.90;;;5.57;100.00;100690.41;4985282;27;100490;-63
2020/12/16 05:07:50;;;;;;;17.37;14.40;;;8.00;99.90;;;5.56;100.00;100696.69;4985036;28;100280;-63
2020/12/16 05:10:30;;;;;;;19.83;14.43;;;8.00;99.90;;;5.59;100.00;100706.22;4996139;27;100383;-64
2020/12/16 05:13:06;;;;;;;21.03;14.33;;;8.10;99.90;;;5.57;100.00;100697.50;5008888;27;100403;-63
2020/12/16 05:15:32;;;;;;;18.60;14.03;;;8.00;99.90;;;5.57;100.00;100710.78;5020686;27;100048;-63
2020/12/16 05:18:13;;;;;;;19.33;14.57;;;8.00;99.90;;;5.56;100.00;100702.00;5026781;27;101865;-63
2020/12/16 05:20:43;;;;;;;19.97;14.83;;;8.00;99.90;;;5.56;100.00;100706.47;5029855;27;100660;-64
2020/12/16 05:23:10;;;;;;;20.27;14.70;;;7.90;99.90;;;5.61;100.00;100705.13;5028525;27;100121;-63
2020/12/16 05:25:37;;;;;;;21.47;14.53;;;8.30;99.90;;;5.56;100.00;100706.47;5029315;27;100216;-63
2020/12/16 05:28:05;;;;;;;18.53;14.50;;;7.90;99.90;;;5.54;100.00;100711.88;5028190;27;101292;-63
2020/12/16 05:30:33;;;;;;;19.33;14.23;;;8.00;99.90;;;5.51;100.00;100712.09;5029579;27;100986;-63
2020/12/16 05:33:04;;;;;;;21.70;16.17;;;8.00;99.90;;;5.49;100.00;100713.19;5029062;27;100017;-63
2020/12/16 05:35:36;;;;;;;21.83;15.90;;;8.00;99.90;;;5.47;100.00;100718.59;5028533;27;100231;-63
2020/12/16 05:38:08;;;;;;;17.83;14.07;;;7.90;99.90;;;5.54;100.00;100719.00;5028584;27;100860;-62
2020/12/16 05:40:37;;;;;;;18.67;14.30;;;7.80;99.90;;;5.52;100.00;100726.22;5028742;27;101277;-62
2020/12/16 05:43:05;;;;;;;20.23;14.17;;;7.90;99.90;;;5.53;100.00;100727.94;5019109;27;100292;-62
2020/12/16 05:45:39;;;;;;;21.83;14.80;;;8.60;99.90;;;5.48;100.00;100736.22;5009075;27;100352;-61
2020/12/16 05:48:08;;;;;;;19.93;14.63;;;7.90;99.90;;;5.51;100.00;100737.81;5008516;27;100886;-61
2020/12/16 05:50:39;;;;;;;19.17;15.00;;;7.90;99.90;;;5.49;100.00;100737.06;5008177;27;101211;-61
2020/12/16 05:53:16;;;;;;;20.77;15.33;;;7.80;99.90;;;5.48;100.00;100730.06;5008347;27;100340;-61
2020/12/16 05:55:43;;;;;;;20.10;15.73;;;7.90;99.90;;;5.46;100.00;100738.13;5009042;27;99978;-63
2020/12/16 05:58:12;;;;;;;19.93;15.73;;;7.80;99.90;;;5.49;100.00;100737.06;5007256;27;101098;-62
2020/12/16 06:00:51;;;;;;;21.67;16.60;;;7.90;99.90;;;5.49;100.00;100745.03;5007232;27;101273;-62
2020/12/16 06:03:28;;;;;;;20.90;15.93;;;7.90;99.90;;;5.45;100.00;100743.56;5007632;27;100105;-63
2020/12/16 06:05:58;;;;;;;22.37;16.33;;;8.00;99.90;;;5.44;100.00;100747.19;5008145;27;100256;-62
2020/12/16 06:08:28;;;;;;;23.33;16.93;;;7.90;99.90;;;5.43;100.00;100746.34;5006435;27;101891;-63
2020/12/16 06:10:55;;;;;;;21.47;15.67;;;7.90;99.90;;;5.45;100.00;100746.22;5012944;27;100946;-62
2020/12/16 06:13:23;;;;;;;23.47;16.20;;;7.80;99.90;;;5.47;100.00;100754.91;5028591;27;100168;-62
2020/12/16 06:15:56;;;;;;;20.67;15.20;;;7.90;99.90;;;5.53;100.00;100751.81;5027722;27;100115;-62
2020/12/16 06:18:27;;;;;;;22.50;16.70;;;7.80;99.90;;;5.44;100.00;100750.66;5027697;27;100489;-62
2020/12/16 06:20:55;;;;;;;21.23;15.77;;;7.70;99.90;;;5.49;100.00;100750.34;5028026;27;101267;-62
2020/12/16 06:23:26;;;;;;;23.57;17.23;;;7.90;99.90;;;5.47;100.00;100750.44;5026379;27;100344;-62
2020/12/16 06:25:56;;;;;;;20.43;15.27;;;7.90;99.90;;;5.45;100.00;100749.72;5028556;27;100202;-62
2020/12/16 06:28:23;;;;;;;23.37;16.50;;;8.10;99.90;;;5.40;100.00;100750.06;5026752;27;101524;-61
2020/12/16 06:31:01;;;;;;;20.73;15.17;;;7.80;99.90;;;5.53;100.00;100754.47;5028517;27;100587;-62
2020/12/16 06:33:35;;;;;;;21.73;16.30;;;7.90;99.90;;;5.46;100.00;100751.41;5013339;27;100108;-62
2020/12/16 06:36:05;;;;;;;20.97;15.60;;;8.00;99.90;;;5.44;100.00;100755.97;5012813;27;99935;-63
2020/12/16 06:38:44;;;;;;;23.20;16.33;;;7.90;99.90;;;5.45;100.00;100756.81;5019463;27;100986;-62
2020/12/16 06:41:19;;;;;;;21.17;16.07;;;8.60;99.90;;;5.41;100.00;100767.69;5013563;27;100022;-62
2020/12/16 06:43:47;;;;;;;21.07;15.37;;;8.00;99.90;;;5.45;100.00;100770.94;5007394;27;100039;-63
2020/12/16 06:46:52;;;;;;;23.33;17.00;;;8.10;99.90;;;5.43;100.00;100769.38;5008276;27;99893;-62
2020/12/16 06:49:41;;;;;;;21.43;16.67;;;7.80;99.90;;;5.40;100.00;100776.59;5012720;27;99962;-62
2020/12/16 06:52:11;;;;;;;21.80;17.27;;;8.00;99.90;;;5.45;100.00;100778.91;5024298;27;100602;-63
2020/12/16 06:54:44;;;;;;;25.17;17.80;;;7.80;99.90;;;5.46;100.00;100783.25;5025733;27;100036;-61
2020/12/16 06:57:18;;;;;;;23.23;17.20;;;7.80;99.90;;;5.45;100.00;100789.53;5024521;27;100048;-62
2020/12/16 06:59:51;;;;;;;23.20;16.33;;;7.90;99.90;;;5.36;100.00;100780.44;5024039;27;101499;-62
2020/12/16 07:02:25;;;;;;;21.60;17.33;;;8.00;99.90;;;5.32;100.00;100780.78;5024086;27;101082;-61
2020/12/16 07:04:51;;;;;;;22.93;16.57;;;7.90;99.90;;;5.35;100.00;100788.50;5024833;27;100142;-62
2020/12/16 07:07:49;;;;;;;21.10;16.17;;;7.80;99.90;;;5.33;100.00;100788.63;5013396;27;100178;-62
2020/12/16 07:10:41;;;;;;;25.33;18.57;;;7.70;99.90;;;5.34;100.00;100792.13;5003917;27;101065;-61
2020/12/16 07:13:13;;;;;;;26.60;18.47;;;7.70;99.90;;;5.36;100.00;100790.22;5004202;27;100729;-61
2020/12/16 07:15:45;;;;;;;24.67;18.20;;;7.80;99.90;;;5.32;100.00;100794.03;5017132;27;100051;-61
2020/12/16 07:18:40;;;;;;;21.13;16.43;;;7.70;99.90;;;5.39;100.00;100797.94;5024100;27;100055;-61
2020/12/16 07:21:35;;;;;;;22.50;16.40;;;7.80;99.90;;;5.32;100.00;100805.50;5023693;27;101517;-61
2020/12/16 07:24:10;;;;;;;21.33;17.20;;;7.70;99.90;;;5.33;100.00;100804.53;5019107;27;100682;-62
2020/12/16 07:26:43;;;;;;;23.83;17.93;;;7.70;99.90;;;5.34;100.00;100808.88;5004556;27;100240;-61
2020/12/16 07:29:26;;;;;;;23.57;17.27;;;7.70;99.90;;;5.31;100.00;100813.59;5004229;27;100135;-61
2020/12/16 07:31:58;;;;;;;23.80;17.27;;;7.70;99.90;;;5.33;100.00;100814.31;5005414;27;101597;-61
2020/12/16 07:34:25;;;;;;;22.20;17.07;;;7.80;99.90;;;5.31;100.00;100816.25;5019268;27;100611;-61
2020/12/16 07:37:00;;;;;;;25.07;17.93;;;7.70;99.90;;;5.34;100.00;100821.31;5004013;27;100037;-61
2020/12/16 07:39:29;;;;;;;22.53;16.87;;;8.20;99.90;;;5.35;100.00;100815.03;5004471;27;100302;-62
2020/12/16 07:41:57;;;;;;;27.37;19.47;;;7.60;99.90;;;5.33;100.00;100824.91;5004227;27;100927;-62
2020/12/16 07:44:24;;;;;;;28.30;21.10;;;7.80;99.90;;;5.30;100.00;100822.50;5003748;27;100157;-61
2020/12/16 07:46:51;;;;;;;28.70;21.87;;;7.60;99.90;;;5.27;100.00;100820.94;5003169;27;100026;-61
2020/12/16 07:49:18;;;;;;;27.77;20.30;;;7.70;99.90;;;5.29;100.00;100831.44;5004764;27;100250;-61
2020/12/16 07:51:44;;;;;;;30.90;22.23;;;7.70;99.90;;;5.24;100.00;100829.09;5003686;27;101527;-61
2020/12/16 07:54:11;;;;;;;30.07;21.50;;;7.60;99.90;;;5.23;100.00;100832.72;5003919;27;100655;-61
2020/12/16 07:56:38;;;;;;;30.67;20.83;;;7.70;99.90;;;5.30;100.00;100831.31;5003858;27;99944;-61
2020/12/16 07:59:13;;;;;;;35.73;25.30;;;7.70;99.90;;;5.29;100.00;100839.38;5001414;27;100206;-63
2020/12/16 08:01:40;;;;;;;31.13;23.57;;;7.60;99.90;;;5.27;100.00;100839.50;5003703;27;100532;-62
2020/12/16 08:04:06;;;;;;;42.27;32.03;;;7.60;99.90;;;5.25;100.00;100848.53;5022759;27;100116;-61
2020/12/16 08:06:33;;;;;;;30.37;21.53;;;7.70;99.90;;;5.27;100.00;100850.09;5023820;27;99964;-61
2020/12/16 08:08:59;;;;;;;31.67;23.27;;;7.80;99.90;;;5.26;100.00;100847.56;5023746;27;100110;-61
2020/12/16 08:11:27;;;;;;;29.80;21.20;;;7.80;99.90;;;5.34;100.00;100855.81;5022630;27;100792;-62
2020/12/16 08:14:05;;;;;;;30.10;21.27;;;7.80;99.90;;;5.45;100.00;100852.38;5023534;27;101461;-62
2020/12/16 08:16:32;;;;;;;29.53;20.13;;;7.70;99.90;;;5.40;100.00;100852.72;5023738;27;100112;-61
2020/12/16 08:18:58;;;;;;;34.47;25.50;;;7.70;99.90;;;5.33;100.00;100856.75;5008938;27;100137;-62
2020/12/16 08:21:25;;;;;;;26.30;19.40;;;7.80;99.90;;;5.31;100.00;100858.72;5002890;27;100615;-61
2020/12/16 08:23:54;;;;;;;31.10;20.43;;;7.80;99.90;;;5.31;100.00;100866.66;5002907;27;100700;-61
2020/12/16 08:26:23;;;;;;;43.40;32.80;;;7.90;99.90;;;5.32;100.00;100863.88;5003286;27;99995;-63
2020/12/16 08:28:50;;;;;;;35.23;24.90;;;8.00;99.90;;;5.37;100.00;100861.75;5004066;27;100359;-61
2020/12/16 08:31:19;;;;;;;35.73;25.20;;;8.00;99.90;;;5.31;100.00;100858.72;5004744;27;101190;-62
2020/12/16 08:33:48;;;;;;;37.17;25.30;;;7.90;99.90;;;5.28;100.00;100864.22;5006228;27;102612;-61
2020/12/16 08:36:22;;;;;;;29.67;21.53;;;8.00;99.90;;;5.24;100.00;100862.75;5005445;27;100252;-62
2020/12/16 08:38:51;;;;;;;30.03;21.00;;;8.00;99.90;;;5.29;100.00;100873.88;5006725;27;100261;-61
2020/12/16 08:41:25;;;;;;;28.27;20.00;;;7.90;99.90;;;5.30;100.00;100871.13;5006203;27;101508;-61
2020/12/16 08:43:53;;;;;;;31.13;20.87;;;8.00;99.90;;;5.28;100.00;100867.72;5006570;27;100627;-62
2020/12/16 08:46:23;;;;;;;27.43;20.27;;;7.90;99.90;;;5.31;100.00;100869.31;5006674;27;100163;-62
2020/12/16 08:48:51;;;;;;;34.13;22.10;;;8.70;99.90;;;5.20;100.00;100875.38;5006599;27;100218;-61
2020/12/16 08:51:21;;;;;;;33.17;22.13;;;7.90;99.90;;;5.28;100.00;100881.00;5006269;27;101019;-61
2020/12/16 08:53:55;;;;;;;33.20;23.33;;;7.90;99.90;;;5.34;100.00;100874.38;5006892;27;100612;-62
2020/12/16 08:56:27;;;;;;;34.37;23.57;;;8.40;99.90;;;5.25;100.00;100878.56;5020340;27;100410;-61
2020/12/16 08:59:08;;;;;;;33.93;23.90;;;7.80;99.90;;;5.29;100.00;100881.84;5026323;27;100292;-61
2020/12/16 09:01:37;;;;;;;45.53;30.17;;;7.70;99.90;;;5.26;100.00;100882.91;5024952;27;100852;-62
2020/12/16 09:04:05;;;;;;;33.80;24.43;;;7.80;99.90;;;5.29;100.00;100884.50;5026758;27;100571;-62
2020/12/16 09:06:32;;;;;;;34.33;23.93;;;7.80;99.90;;;5.26;100.00;100879.41;5026596;27;100027;-62
2020/12/16 09:08:58;;;;;;;34.53;23.07;;;7.70;99.90;;;5.29;100.00;100879.19;5027035;27;100190;-62
2020/12/16 09:11:25;;;;;;;32.53;23.07;;;7.80;99.90;;;5.30;100.00;100886.19;5021525;27;100306;-62
2020/12/16 09:13:59;;;;;;;34.47;23.80;;;7.80;99.90;;;5.30;100.00;100889.69;5006228;27;100651;-62
2020/12/16 09:16:27;;;;;;;36.80;23.97;;;7.70;99.90;;;5.34;100.00;100890.31;5005727;27;100354;-62
2020/12/16 09:18:54;;;;;;;34.97;23.50;;;7.70;99.90;;;5.40;100.00;100888.06;5007075;27;100051;-63
2020/12/16 09:21:34;;;;;;;32.60;22.33;;;7.70;99.90;;;5.42;100.00;100885.31;5005362;27;102079;-63
2020/12/16 09:24:01;;;;;;;33.37;22.57;;;8.00;99.90;;;5.44;100.00;100887.84;5018353;27;100131;-63
2020/12/16 09:26:36;;;;;;;31.63;21.77;;;9.00;99.90;;;5.42;100.00;100887.97;5025842;27;100018;-62
2020/12/16 09:29:15;;;;;;;34.83;23.43;;;8.60;99.90;;;5.44;100.00;100885.22;5026082;27;100207;-62
2020/12/16 09:31:41;;;;;;;33.70;22.53;;;7.90;99.90;;;5.44;100.00;100880.72;5025272;27;101591;-61
2020/12/16 09:34:09;;;;;;;35.63;24.03;;;7.80;99.90;;;5.47;100.00;100880.50;5005526;27;100490;-64
2020/12/16 09:36:35;;;;;;;35.63;24.13;;;7.90;99.90;;;5.55;100.00;100872.00;5005269;27;100225;-61
2020/12/16 09:39:06;;;;;;;35.17;23.20;;;8.70;99.90;;;5.55;100.00;100874.66;5005845;27;100307;-61
2020/12/16 09:41:43;;;;;;;32.87;23.07;;;7.90;99.90;;;5.59;100.00;100874.31;5005340;27;100909;-61
2020/12/16 09:44:29;;;;;;;33.33;22.73;;;8.20;99.90;;;5.59;100.00;100876.97;5005493;27;100063;-62
2020/12/16 09:47:14;;;;;;;33.90;23.80;;;8.10;99.90;;;5.70;100.00;100869.06;5005774;27;100113;-62
2020/12/16 09:49:43;;;;;;;35.67;22.40;;;8.00;99.90;;;5.68;100.00;100873.66;5003974;27;100342;-62
2020/12/16 09:52:28;;;;;;;37.40;26.50;;;8.90;99.90;;;5.65;100.00;100873.03;5003156;27;100345;-62
2020/12/16 09:54:54;;;;;;;31.73;23.40;;;8.30;99.90;;;5.64;100.00;100868.66;5005290;27;100429;-62
2020/12/16 09:57:22;;;;;;;40.30;25.57;;;9.00;99.90;;;5.71;100.00;100867.25;5005624;27;100253;-62
2020/12/16 09:59:49;;;;;;;37.13;25.20;;;8.20;99.90;;;5.74;100.00;100859.91;5005371;27;100181;-62
2020/12/16 10:02:16;;;;;;;34.33;25.17;;;8.30;99.90;;;5.75;100.00;100863.41;5009828;27;101571;-62
2020/12/16 10:04:44;;;;;;;45.43;30.70;;;8.40;99.90;;;5.79;100.00;100862.22;5026270;27;100773;-62
2020/12/16 10:07:10;;;;;;;34.10;22.13;;;8.20;99.90;;;6.00;100.00;100859.81;5023085;27;99990;-62
2020/12/16 10:09:39;;;;;;;35.23;24.20;;;8.30;99.90;;;5.96;100.00;100859.19;5025681;27;100051;-64
2020/12/16 10:12:06;;;;;;;35.80;23.93;;;9.60;99.90;;;5.92;100.00;100855.09;5024170;27;101117;-61
2020/12/16 10:14:34;;;;;;;35.13;23.13;;;8.40;99.90;;;6.18;100.00;100853.13;5025371;27;101177;-62
2020/12/16 10:17:01;;;;;;;32.07;23.63;;;9.00;99.90;;;6.20;100.00;100852.97;5019988;27;100714;-62
2020/12/16 10:19:27;;;;;;;37.07;24.73;;;8.90;99.90;;;6.05;100.00;100855.88;5005347;27;100130;-61